Time;durP1;ratioP1;P1;durP2;ratioP2;P2;SDS_P1;SDS_P2;PMS_P1;PMS_P2;Temp;Humidity;BMP_temperature;BMP_pressure;BME280_temperature;BME280_humidity;BME280_pressure;Samples;Min_cycle;Max_cycle;Signal;HPM_P1;HPM_P2
2023/07/27 00:00:42;;;;;;;84.93;53.60;;;19.70;78.30;;;;;;4975152;28;90861;-81
2023/07/27 00:03:08;;;;;;;84.45;53.65;;;19.70;78.20;;;;;;4974693;28;94246;-81
2023/07/27 00:05:33;;;;;;;86.10;53.67;;;19.70;78.30;;;;;;4977538;28;95186;-79
2023/07/27 00:07:59;;;;;;;84.30;53.60;;;19.70;79.10;;;;;;4980833;28;90239;-80
2023/07/27 00:10:25;;;;;;;84.25;53.63;;;19.60;78.30;;;;;;4978354;28;90645;-81
2023/07/27 00:12:51;;;;;;;83.80;53.33;;;19.60;78.50;;;;;;4978282;28;89333;-79
2023/07/27 00:15:16;;;;;;;85.68;53.42;;;19.60;78.40;;;;;;4975046;28;89253;-80
2023/07/27 00:17:42;;;;;;;85.80;53.78;;;19.60;78.60;;;;;;4975213;28;93974;-81
2023/07/27 00:20:08;;;;;;;84.18;53.58;;;19.60;78.60;;;;;;4979518;28;90233;-80
2023/07/27 00:22:34;;;;;;;84.18;53.40;;;19.60;78.80;;;;;;4978829;28;89186;-80
2023/07/27 00:24:59;;;;;;;84.45;53.33;;;19.60;78.70;;;;;;4976699;28;89612;-80
2023/07/27 00:27:25;;;;;;;86.70;53.65;;;19.50;78.80;;;;;;4979372;28;89803;-80
2023/07/27 00:29:51;;;;;;;85.78;53.53;;;19.60;79.10;;;;;;4982398;28;90559;-78
2023/07/27 00:32:16;;;;;;;83.85;53.53;;;19.50;79.00;;;;;;4981643;28;90061;-79
2023/07/27 00:34:42;;;;;;;84.60;53.42;;;19.50;79.10;;;;;;4987070;28;91228;-79
2023/07/27 00:37:08;;;;;;;84.20;53.42;;;19.50;79.10;;;;;;4981091;28;92293;-80
2023/07/27 00:39:34;;;;;;;83.22;53.10;;;19.50;79.00;;;;;;4978960;28;90549;-81
2023/07/27 00:42:00;;;;;;;84.43;53.25;;;19.50;79.30;;;;;;4985175;28;90276;-79
2023/07/27 00:44:25;;;;;;;84.82;53.60;;;19.50;79.30;;;;;;4980014;28;90003;-82
2023/07/27 00:46:52;;;;;;;84.00;53.25;;;19.50;79.50;;;;;;4984994;28;91144;-81
2023/07/27 00:49:19;;;;;;;83.45;53.45;;;19.50;79.40;;;;;;4979426;28;92575;-81
2023/07/27 00:51:45;;;;;;;83.60;53.50;;;19.40;79.40;;;;;;4980568;28;91815;-83
2023/07/27 00:54:11;;;;;;;84.65;53.22;;;19.40;79.40;;;;;;4979285;28;93151;-81
2023/07/27 00:56:38;;;;;;;83.95;53.13;;;19.40;79.60;;;;;;4984236;28;90422;-81
2023/07/27 00:59:05;;;;;;;84.20;53.13;;;19.40;79.30;;;;;;4982703;28;92600;-82
2023/07/27 01:01:32;;;;;;;83.28;53.20;;;19.40;79.70;;;;;;4982585;28;93477;-82
2023/07/27 01:03:58;;;;;;;83.18;53.10;;;19.40;79.70;;;;;;4974803;28;93445;-82
2023/07/27 01:06:24;;;;;;;83.97;53.35;;;19.40;80.00;;;;;;4979153;28;89870;-81
2023/07/27 01:08:51;;;;;;;83.35;53.10;;;19.40;79.70;;;;;;4980879;28;89809;-81
2023/07/27 01:11:26;;;;;;;83.30;53.15;;;19.40;79.80;;;;;;4982892;28;89300;-80
2023/07/27 01:14:04;;;;;;;83.90;53.30;;;19.40;80.00;;;;;;4981071;28;93087;-80
2023/07/27 01:17:08;;;;;;;83.47;53.35;;;19.30;80.10;;;;;;4976320;28;91135;-81
2023/07/27 01:19:39;;;;;;;83.28;53.28;;;19.30;80.00;;;;;;4950092;28;91905;-81
2023/07/27 01:22:11;;;;;;;;;;;19.30;80.00;;;;;;4979896;28;90498;-81
2023/07/27 01:25:01;;;;;;;83.15;52.80;;;19.30;80.70;;;;;;4982278;28;90497;-81
2023/07/27 01:27:42;;;;;;;83.50;52.92;;;19.30;79.90;;;;;;4977434;28;90494;-81
2023/07/27 01:30:28;;;;;;;83.45;53.05;;;19.30;80.40;;;;;;4974621;28;90207;-80
2023/07/27 01:33:03;;;;;;;82.72;52.92;;;19.30;80.20;;;;;;4980055;28;90166;-80
2023/07/27 01:35:46;;;;;;;83.90;53.25;;;19.30;80.10;;;;;;4982188;28;91523;-80
2023/07/27 01:38:13;;;;;;;82.93;52.80;;;19.30;80.40;;;;;;4982470;28;89961;-80
2023/07/27 01:40:41;;;;;;;82.90;52.85;;;19.30;80.20;;;;;;4979183;28;89801;-80
2023/07/27 01:43:08;;;;;;;83.40;53.05;;;19.30;80.60;;;;;;4983919;28;94205;-80
2023/07/27 01:45:34;;;;;;;84.05;53.10;;;19.20;80.70;;;;;;4981414;28;91279;-81
2023/07/27 01:48:00;;;;;;;82.25;52.70;;;19.20;80.70;;;;;;4982543;28;90756;-80
2023/07/27 01:50:27;;;;;;;82.85;53.05;;;19.20;80.70;;;;;;4982194;28;91077;-80
2023/07/27 01:52:55;;;;;;;83.25;53.22;;;19.20;80.40;;;;;;4982091;28;91972;-80
2023/07/27 01:55:22;;;;;;;82.45;52.72;;;19.20;80.70;;;;;;4981701;28;91496;-79
2023/07/27 01:57:49;;;;;;;83.28;53.08;;;19.20;80.80;;;;;;4980314;28;89954;-79
2023/07/27 02:00:16;;;;;;;82.32;52.50;;;19.20;80.60;;;;;;4977826;28;90008;-79
2023/07/27 02:02:43;;;;;;;84.32;53.20;;;19.20;80.40;;;;;;4981692;28;90917;-79
2023/07/27 02:05:09;;;;;;;83.25;52.88;;;19.20;80.90;;;;;;4977181;28;90243;-79
2023/07/27 02:07:36;;;;;;;82.68;52.92;;;19.20;80.70;;;;;;4978913;28;89642;-79
2023/07/27 02:10:02;;;;;;;82.55;52.88;;;19.20;80.80;;;;;;4982380;28;92938;-80
2023/07/27 02:12:34;;;;;;;82.35;52.88;;;19.20;81.20;;;;;;4980295;28;89882;-80
2023/07/27 02:15:13;;;;;;;82.68;53.10;;;19.20;80.70;;;;;;4979647;28;90370;-78
2023/07/27 02:17:44;;;;;;;84.13;52.97;;;19.20;81.50;;;;;;4981071;28;89856;-80
2023/07/27 02:20:12;;;;;;;83.18;52.90;;;19.20;81.00;;;;;;4982587;28;91579;-80
2023/07/27 02:22:40;;;;;;;82.63;53.03;;;19.10;81.10;;;;;;4973333;28;90398;-80
2023/07/27 02:25:07;;;;;;;83.20;53.15;;;19.20;81.40;;;;;;4980045;28;90082;-79
2023/07/27 02:27:33;;;;;;;83.13;53.10;;;19.10;81.10;;;;;;4978879;28;90825;-80
2023/07/27 02:29:59;;;;;;;82.63;52.92;;;19.10;81.20;;;;;;4980043;28;92480;-80
2023/07/27 02:32:25;;;;;;;82.38;52.83;;;19.10;81.30;;;;;;4978792;28;94359;-79
2023/07/27 02:34:50;;;;;;;83.72;52.92;;;19.10;80.90;;;;;;4981455;28;90475;-80
2023/07/27 02:37:16;;;;;;;82.63;52.92;;;19.10;80.70;;;;;;4984719;28;90447;-80
2023/07/27 02:39:41;;;;;;;82.07;52.72;;;19.10;81.70;;;;;;4979845;28;89505;-80
2023/07/27 02:42:07;;;;;;;81.90;52.75;;;19.10;81.10;;;;;;4982346;28;99416;-80
2023/07/27 02:44:33;;;;;;;82.63;52.95;;;19.10;80.90;;;;;;4975521;28;89863;-80
2023/07/27 02:46:58;;;;;;;83.10;52.95;;;19.10;81.00;;;;;;4980617;28;90833;-80
2023/07/27 02:49:24;;;;;;;82.50;52.85;;;19.10;81.10;;;;;;4977351;28;89598;-82
2023/07/27 02:51:49;;;;;;;82.70;53.00;;;19.10;82.00;;;;;;4979980;28;89327;-81
2023/07/27 02:54:15;;;;;;;82.30;52.63;;;19.10;81.00;;;;;;4977128;28;90741;-81
2023/07/27 02:56:41;;;;;;;82.47;52.60;;;19.10;81.70;;;;;;4979333;28;89597;-81
2023/07/27 02:59:06;;;;;;;82.90;52.92;;;19.10;81.40;;;;;;4979605;28;91420;-81
2023/07/27 03:01:32;;;;;;;82.47;52.95;;;19.10;81.20;;;;;;4978511;28;90835;-81
2023/07/27 03:03:57;;;;;;;82.68;52.58;;;19.10;81.30;;;;;;4975493;28;89916;-80
2023/07/27 03:06:23;;;;;;;82.70;53.05;;;19.10;81.60;;;;;;4979202;28;89925;-81
2023/07/27 03:08:48;;;;;;;82.43;52.60;;;19.10;82.20;;;;;;4976264;28;89880;-80
2023/07/27 03:11:14;;;;;;;83.10;52.83;;;19.10;82.20;;;;;;4977470;28;92522;-80
2023/07/27 03:13:39;;;;;;;83.45;52.97;;;19.10;82.70;;;;;;4973442;28;90851;-80
2023/07/27 03:16:05;;;;;;;82.55;52.72;;;19.10;81.10;;;;;;4973103;28;90643;-80
2023/07/27 03:18:31;;;;;;;83.13;52.83;;;19.10;82.20;;;;;;4971830;28;91617;-81
2023/07/27 03:20:57;;;;;;;82.22;52.65;;;19.10;82.10;;;;;;4976438;28;89587;-80
2023/07/27 03:23:22;;;;;;;82.70;52.75;;;19.10;81.60;;;;;;4977747;28;91496;-79
2023/07/27 03:25:48;;;;;;;82.88;52.72;;;19.10;81.80;;;;;;4973668;28;92461;-80
2023/07/27 03:28:13;;;;;;;84.35;52.90;;;19.10;81.80;;;;;;4977602;28;93120;-80
2023/07/27 03:30:39;;;;;;;83.50;53.00;;;19.10;81.50;;;;;;4976859;28;91045;-79
2023/07/27 03:33:06;;;;;;;82.38;52.63;;;19.10;81.40;;;;;;4976943;28;91039;-79
2023/07/27 03:35:33;;;;;;;82.18;52.60;;;19.10;82.00;;;;;;4981168;28;89423;-78
2023/07/27 03:37:59;;;;;;;82.18;52.58;;;19.10;81.50;;;;;;4973838;28;90366;-79
2023/07/27 03:40:24;;;;;;;82.50;52.92;;;19.10;81.50;;;;;;4973135;28;89860;-80
2023/07/27 03:42:50;;;;;;;81.90;52.47;;;19.10;81.50;;;;;;4976653;28;91509;-80
2023/07/27 03:45:16;;;;;;;82.80;52.95;;;19.10;82.10;;;;;;4971865;28;90055;-80
2023/07/27 03:47:42;;;;;;;82.22;52.78;;;19.10;81.50;;;;;;4973973;28;90676;-81
2023/07/27 03:50:09;;;;;;;82.13;52.70;;;19.10;81.50;;;;;;4977471;28;90411;-81
2023/07/27 03:52:34;;;;;;;82.28;52.72;;;19.00;81.90;;;;;;4974895;28;89575;-80
2023/07/27 03:55:00;;;;;;;82.50;52.83;;;19.10;81.70;;;;;;4975798;28;89619;-80
2023/07/27 03:57:26;;;;;;;82.95;52.72;;;19.10;81.50;;;;;;4979632;28;90255;-80
2023/07/27 03:59:55;;;;;;;82.60;53.03;;;19.10;82.10;;;;;;4975173;28;90268;-79
2023/07/27 04:02:22;;;;;;;82.28;52.78;;;19.00;81.80;;;;;;4977426;28;90721;-81
2023/07/27 04:04:48;;;;;;;83.28;52.83;;;19.00;81.90;;;;;;4981767;28;88950;-81
2023/07/27 04:07:14;;;;;;;83.15;52.80;;;19.10;81.80;;;;;;4975219;28;90318;-80
2023/07/27 04:09:39;;;;;;;81.72;52.40;;;19.00;82.20;;;;;;4980388;28;90089;-80
2023/07/27 04:12:05;;;;;;;82.95;52.58;;;19.00;82.50;;;;;;4976285;28;91487;-79
2023/07/27 04:14:31;;;;;;;82.28;52.78;;;19.10;82.20;;;;;;4976809;28;91203;-79
2023/07/27 04:16:57;;;;;;;81.68;52.33;;;19.10;82.20;;;;;;4976399;28;91692;-79
2023/07/27 04:19:22;;;;;;;83.00;52.78;;;19.10;82.70;;;;;;4977520;28;91263;-79
2023/07/27 04:21:48;;;;;;;82.72;52.78;;;19.10;81.40;;;;;;4976600;28;91438;-79
2023/07/27 04:24:13;;;;;;;82.07;52.33;;;19.10;81.50;;;;;;4975602;28;89431;-80
2023/07/27 04:26:39;;;;;;;82.93;52.95;;;19.00;82.40;;;;;;4981471;28;89692;-80
2023/07/27 04:29:04;;;;;;;82.32;52.70;;;19.10;83.10;;;;;;4978340;28;89545;-81
2023/07/27 04:31:30;;;;;;;82.47;52.80;;;19.10;82.00;;;;;;4980090;28;90888;-80
2023/07/27 04:33:56;;;;;;;82.30;52.90;;;19.10;82.50;;;;;;4975078;28;91679;-81
2023/07/27 04:36:21;;;;;;;82.50;53.00;;;19.10;81.80;;;;;;4981290;28;91130;-81
2023/07/27 04:38:47;;;;;;;82.00;52.75;;;19.10;81.90;;;;;;4979240;28;90132;-81
2023/07/27 04:41:13;;;;;;;82.47;52.75;;;19.10;81.90;;;;;;4977226;28;91493;-80
2023/07/27 04:43:39;;;;;;;82.20;52.50;;;19.10;82.50;;;;;;4976825;28;90597;-80
2023/07/27 04:46:04;;;;;;;82.35;52.65;;;19.10;82.40;;;;;;4977701;28;89551;-80
2023/07/27 04:48:30;;;;;;;82.68;52.60;;;19.10;82.10;;;;;;4983566;28;89645;-79
2023/07/27 04:50:56;;;;;;;82.00;52.70;;;19.10;82.50;;;;;;4978271;28;90299;-79
2023/07/27 04:53:22;;;;;;;83.65;53.00;;;19.10;82.70;;;;;;4983673;28;89148;-79
2023/07/27 04:55:47;;;;;;;83.47;52.92;;;19.10;82.30;;;;;;4981300;28;90693;-79
2023/07/27 04:58:13;;;;;;;83.03;52.85;;;19.10;81.40;;;;;;4980315;28;89226;-79
2023/07/27 05:00:38;;;;;;;82.25;52.33;;;19.10;82.80;;;;;;4977079;28;91379;-80
2023/07/27 05:03:04;;;;;;;82.15;52.60;;;19.10;81.90;;;;;;4980052;28;90793;-79
2023/07/27 05:05:30;;;;;;;82.55;52.92;;;19.10;82.40;;;;;;4980983;28;89474;-79
2023/07/27 05:07:55;;;;;;;83.22;52.70;;;19.10;82.60;;;;;;4977055;28;90103;-79
2023/07/27 05:10:22;;;;;;;83.07;52.75;;;19.10;82.20;;;;;;4980174;28;96028;-80
2023/07/27 05:12:48;;;;;;;82.65;52.83;;;19.10;81.50;;;;;;4978340;28;89982;-80
2023/07/27 05:15:14;;;;;;;82.68;52.72;;;19.10;81.90;;;;;;4976967;28;89883;-79
2023/07/27 05:17:39;;;;;;;83.20;53.05;;;19.20;81.60;;;;;;4981591;28;89947;-80
2023/07/27 05:20:05;;;;;;;81.70;52.45;;;19.10;81.50;;;;;;4983107;28;91342;-80
2023/07/27 05:22:31;;;;;;;82.25;52.50;;;19.20;82.20;;;;;;4975673;28;90067;-80
2023/07/27 05:24:56;;;;;;;82.15;52.63;;;19.20;82.10;;;;;;4980151;28;91048;-79
2023/07/27 05:27:22;;;;;;;83.28;52.63;;;19.20;82.10;;;;;;4979914;28;90619;-80
2023/07/27 05:29:47;;;;;;;82.95;52.85;;;19.20;81.70;;;;;;4985708;28;90529;-80
2023/07/27 05:32:13;;;;;;;83.32;52.78;;;19.20;81.50;;;;;;4982817;28;90077;-79
2023/07/27 05:34:38;;;;;;;82.20;52.70;;;19.20;81.90;;;;;;4999031;27;90461;-81
2023/07/27 05:37:04;;;;;;;82.70;52.72;;;19.20;82.30;;;;;;4981309;28;90336;-81
2023/07/27 05:39:30;;;;;;;82.82;52.55;;;19.20;81.80;;;;;;4988716;28;91106;-81
2023/07/27 05:41:55;;;;;;;82.60;52.58;;;19.20;81.90;;;;;;4980455;28;92890;-81
2023/07/27 05:44:21;;;;;;;82.25;52.70;;;19.20;81.80;;;;;;4979110;28;91061;-81
2023/07/27 05:46:49;;;;;;;82.38;52.65;;;19.30;81.00;;;;;;4981516;28;89532;-81
2023/07/27 05:49:14;;;;;;;83.10;52.70;;;19.30;80.80;;;;;;4978942;28;93576;-81
2023/07/27 05:51:40;;;;;;;82.22;52.65;;;19.30;80.80;;;;;;4980262;28;94792;-81
2023/07/27 05:54:06;;;;;;;82.72;52.45;;;19.30;80.80;;;;;;4981803;28;89795;-82
2023/07/27 05:56:31;;;;;;;83.38;52.72;;;19.30;80.50;;;;;;4981781;28;90958;-81
2023/07/27 05:58:57;;;;;;;83.28;53.15;;;19.30;81.20;;;;;;4974028;28;90472;-80
2023/07/27 06:01:22;;;;;;;84.22;53.13;;;19.40;91.40;;;;;;4978988;28;89391;-82
2023/07/27 06:03:48;;;;;;;82.50;52.80;;;19.40;92.00;;;;;;4982755;28;89398;-84
2023/07/27 06:06:15;;;;;;;81.85;52.90;;;19.40;91.70;;;;;;4991623;28;89489;-84
2023/07/27 06:08:41;;;;;;;82.82;52.95;;;19.40;93.00;;;;;;4987236;28;90178;-81
2023/07/27 06:11:09;;;;;;;81.95;53.00;;;19.40;92.60;;;;;;4982574;28;91694;-82
2023/07/27 06:13:37;;;;;;;81.47;52.60;;;19.40;93.50;;;;;;4977200;28;91219;-80
2023/07/27 06:16:06;;;;;;;81.45;52.65;;;19.30;93.30;;;;;;4978467;28;89736;-80
2023/07/27 06:18:32;;;;;;;84.63;52.70;;;19.30;93.00;;;;;;4976553;28;91744;-78
2023/07/27 06:20:58;;;;;;;83.47;52.85;;;19.40;93.60;;;;;;4978114;28;93651;-81
2023/07/27 06:23:23;;;;;;;82.28;52.45;;;19.40;92.20;;;;;;4975501;28;90061;-80
2023/07/27 06:25:49;;;;;;;82.22;52.53;;;19.60;91.80;;;;;;4975042;28;89989;-82
2023/07/27 06:28:15;;;;;;;81.78;52.58;;;19.70;91.80;;;;;;4975519;28;91554;-81
2023/07/27 06:30:41;;;;;;;83.85;52.33;;;19.70;91.80;;;;;;4971333;28;90264;-81
2023/07/27 06:33:07;;;;;;;82.03;52.35;;;19.80;91.30;;;;;;4976251;28;89618;-79
2023/07/27 06:35:32;;;;;;;82.97;52.83;;;19.90;90.80;;;;;;4976766;28;90146;-79
2023/07/27 06:37:58;;;;;;;82.63;52.42;;;19.90;90.40;;;;;;4973868;28;95237;-79
2023/07/27 06:40:24;;;;;;;83.15;52.72;;;19.90;91.20;;;;;;4976541;28;93168;-81
2023/07/27 06:42:50;;;;;;;81.63;52.50;;;19.80;90.70;;;;;;4982809;28;89574;-79
2023/07/27 06:45:16;;;;;;;82.35;52.50;;;19.90;90.80;;;;;;4975751;28;91569;-80
2023/07/27 06:47:41;;;;;;;82.50;52.45;;;19.90;90.20;;;;;;4978439;28;89286;-80
2023/07/27 06:50:07;;;;;;;82.88;52.25;;;19.90;90.50;;;;;;4982090;28;89432;-81
2023/07/27 06:52:33;;;;;;;84.13;52.85;;;19.90;90.60;;;;;;4986104;28;92862;-82
2023/07/27 06:54:58;;;;;;;83.32;52.72;;;19.90;90.10;;;;;;4996111;28;88615;-81
2023/07/27 06:57:27;;;;;;;83.00;52.65;;;19.90;90.40;;;;;;4982086;28;90375;-81
2023/07/27 06:59:53;;;;;;;83.25;52.55;;;19.90;90.50;;;;;;4986018;28;90517;-81
2023/07/27 07:02:18;;;;;;;84.03;52.75;;;19.90;90.30;;;;;;4975604;28;94429;-78
2023/07/27 07:04:45;;;;;;;84.78;52.78;;;20.00;90.20;;;;;;4985046;28;90031;-78
2023/07/27 07:07:11;;;;;;;82.72;52.60;;;20.10;90.20;;;;;;4981167;28;90438;-78
2023/07/27 07:09:38;;;;;;;86.78;53.15;;;20.10;90.30;;;;;;4978879;28;92806;-78
2023/07/27 07:12:04;;;;;;;84.43;53.17;;;20.10;89.10;;;;;;4980397;28;92085;-78
2023/07/27 07:14:30;;;;;;;84.90;52.90;;;20.20;88.50;;;;;;4978515;28;90410;-78
2023/07/27 07:16:55;;;;;;;83.70;52.63;;;20.30;88.90;;;;;;4975500;28;90294;-79
2023/07/27 07:19:21;;;;;;;83.85;52.88;;;20.30;88.40;;;;;;4985012;28;92939;-79
2023/07/27 07:21:47;;;;;;;84.70;53.22;;;20.30;88.60;;;;;;4985692;28;90217;-77
2023/07/27 07:24:12;;;;;;;83.00;52.63;;;20.30;88.90;;;;;;4983008;28;89472;-79
2023/07/27 07:26:38;;;;;;;85.80;52.95;;;20.30;88.10;;;;;;4975754;28;92443;-79
2023/07/27 07:29:04;;;;;;;83.40;52.83;;;20.40;88.50;;;;;;4982890;28;90486;-79
2023/07/27 07:31:30;;;;;;;84.13;52.92;;;20.50;88.60;;;;;;4981918;28;91543;-79
2023/07/27 07:33:56;;;;;;;82.78;52.83;;;20.50;87.90;;;;;;4986254;28;91575;-79
2023/07/27 07:36:22;;;;;;;84.50;52.75;;;20.50;88.50;;;;;;4984364;28;90246;-79
2023/07/27 07:38:47;;;;;;;83.75;52.85;;;20.60;88.00;;;;;;4976951;28;92450;-79
2023/07/27 07:41:13;;;;;;;83.40;52.80;;;20.60;87.10;;;;;;4982320;28;89897;-79
2023/07/27 07:43:41;;;;;;;83.90;52.85;;;20.60;88.60;;;;;;4985326;28;89675;-79
2023/07/27 07:46:11;;;;;;;84.78;53.13;;;20.60;87.40;;;;;;4979989;28;90880;-80
2023/07/27 07:48:36;;;;;;;84.03;52.83;;;20.70;86.40;;;;;;4982689;28;90373;-80
2023/07/27 07:51:02;;;;;;;85.47;53.05;;;20.60;87.30;;;;;;4978806;28;91256;-80
2023/07/27 07:53:27;;;;;;;83.40;52.72;;;20.60;87.60;;;;;;4976753;28;89619;-80
2023/07/27 07:55:53;;;;;;;84.65;52.70;;;20.50;88.60;;;;;;4977710;28;90279;-80
2023/07/27 07:58:19;;;;;;;83.50;52.92;;;20.70;88.20;;;;;;4979352;28;89799;-80
2023/07/27 08:00:44;;;;;;;84.65;52.80;;;20.70;89.30;;;;;;4973090;28;90029;-80
2023/07/27 08:03:10;;;;;;;85.18;52.80;;;20.70;88.50;;;;;;4973640;28;90489;-80
2023/07/27 08:05:36;;;;;;;83.97;53.08;;;20.80;88.70;;;;;;4976617;28;90765;-80
2023/07/27 08:08:02;;;;;;;83.90;52.92;;;20.80;88.40;;;;;;4972763;28;89894;-79
2023/07/27 08:10:27;;;;;;;84.22;52.75;;;20.80;88.60;;;;;;4980297;28;89741;-80
2023/07/27 08:12:53;;;;;;;83.85;52.55;;;20.80;88.70;;;;;;4986334;28;89910;-79
2023/07/27 08:15:19;;;;;;;83.68;52.83;;;20.80;88.90;;;;;;4975501;28;93098;-80
2023/07/27 08:17:44;;;;;;;83.35;52.75;;;20.80;89.20;;;;;;4975092;28;90296;-79
2023/07/27 08:20:10;;;;;;;85.78;52.97;;;20.70;90.40;;;;;;4970861;28;90345;-79
2023/07/27 08:22:36;;;;;;;86.28;52.88;;;20.70;89.10;;;;;;4973235;28;94631;-80
2023/07/27 08:25:04;;;;;;;83.88;52.70;;;20.80;90.10;;;;;;4970608;28;90825;-79
2023/07/27 08:27:33;;;;;;;84.78;52.65;;;20.70;89.70;;;;;;4976475;28;90491;-81
2023/07/27 08:29:58;;;;;;;88.97;52.88;;;20.80;89.20;;;;;;4971364;28;90105;-81
2023/07/27 08:32:24;;;;;;;83.80;52.75;;;20.80;89.60;;;;;;4978104;28;90759;-80
2023/07/27 08:34:49;;;;;;;85.50;52.83;;;20.80;88.20;;;;;;4971803;28;90845;-81
2023/07/27 08:37:15;;;;;;;84.28;52.83;;;20.90;87.90;;;;;;4974031;28;94160;-79
2023/07/27 08:39:40;;;;;;;85.38;52.90;;;20.90;87.50;;;;;;4972113;28;90358;-81
2023/07/27 08:42:07;;;;;;;84.07;52.85;;;21.00;86.70;;;;;;4977015;28;90051;-82
2023/07/27 08:44:33;;;;;;;83.45;52.92;;;21.00;86.20;;;;;;4980791;28;90201;-82
2023/07/27 08:47:02;;;;;;;86.70;53.03;;;21.00;87.30;;;;;;4971152;28;89916;-80
2023/07/27 08:49:30;;;;;;;84.00;52.85;;;21.00;85.20;;;;;;4975494;28;93746;-81
2023/07/27 08:51:56;;;;;;;84.38;52.75;;;21.00;85.00;;;;;;4975769;28;89951;-80
2023/07/27 08:54:21;;;;;;;84.88;52.88;;;21.10;85.50;;;;;;4975816;28;90009;-79
2023/07/27 08:56:48;;;;;;;86.03;53.13;;;21.10;84.60;;;;;;4974563;28;91249;-78
2023/07/27 08:59:14;;;;;;;85.30;52.90;;;21.10;85.10;;;;;;4980691;28;91987;-81
2023/07/27 09:01:41;;;;;;;86.00;53.22;;;21.10;84.60;;;;;;4977849;28;89537;-81
2023/07/27 09:04:06;;;;;;;84.25;52.80;;;21.10;85.40;;;;;;4976075;28;92774;-81
2023/07/27 09:06:50;;;;;;;84.03;52.92;;;21.00;86.20;;;;;;4976359;28;90844;-80
2023/07/27 09:09:16;;;;;;;83.68;52.88;;;21.10;85.70;;;;;;4976613;28;92182;-80
2023/07/27 09:11:42;;;;;;;84.20;53.00;;;21.10;85.60;;;;;;4978138;28;90206;-80
2023/07/27 09:14:09;;;;;;;85.43;53.35;;;21.20;85.10;;;;;;4983732;28;89787;-80
2023/07/27 09:16:35;;;;;;;84.10;53.05;;;21.30;84.60;;;;;;4979308;28;90607;-79
2023/07/27 09:19:01;;;;;;;86.03;53.33;;;21.30;83.80;;;;;;4981493;28;89732;-81
2023/07/27 09:21:36;;;;;;;84.50;53.45;;;21.30;84.10;;;;;;4986503;28;89634;-80
2023/07/27 09:24:02;;;;;;;84.68;53.42;;;21.20;83.90;;;;;;4979783;28;90860;-79
2023/07/27 09:26:28;;;;;;;84.53;53.38;;;21.40;83.80;;;;;;4980611;28;90969;-79
2023/07/27 09:28:54;;;;;;;84.90;53.40;;;21.40;83.80;;;;;;4976325;28;90679;-79
2023/07/27 09:31:19;;;;;;;88.15;53.85;;;21.40;83.90;;;;;;4977648;28;93523;-80
2023/07/27 09:33:45;;;;;;;87.25;53.50;;;21.50;83.00;;;;;;4977088;28;91201;-80
2023/07/27 09:36:11;;;;;;;85.50;53.78;;;21.50;83.20;;;;;;4984494;28;92496;-77
2023/07/27 09:38:38;;;;;;;86.10;53.63;;;21.50;83.40;;;;;;4977929;28;89974;-77
2023/07/27 09:41:07;;;;;;;85.13;53.67;;;21.60;83.70;;;;;;4979954;28;94507;-78
2023/07/27 09:43:38;;;;;;;84.57;53.50;;;21.50;83.60;;;;;;4970107;28;89998;-78
2023/07/27 09:46:04;;;;;;;84.70;53.50;;;21.50;83.00;;;;;;4972508;28;90855;-78
2023/07/27 09:48:31;;;;;;;84.75;53.45;;;21.60;82.60;;;;;;4973323;28;91219;-79
2023/07/27 09:50:59;;;;;;;84.43;53.40;;;21.60;83.10;;;;;;4976165;28;91605;-77
2023/07/27 09:53:30;;;;;;;85.20;53.72;;;21.60;82.30;;;;;;4970982;28;91103;-78
2023/07/27 09:55:57;;;;;;;85.07;53.60;;;21.60;83.40;;;;;;4974976;28;91520;-78
2023/07/27 09:58:23;;;;;;;84.70;53.60;;;21.70;83.40;;;;;;4975714;28;89778;-79
2023/07/27 10:00:48;;;;;;;84.28;53.35;;;21.70;82.60;;;;;;4979348;28;89975;-77
2023/07/27 10:03:14;;;;;;;85.45;53.55;;;21.70;83.60;;;;;;4980311;28;94076;-77
2023/07/27 10:05:41;;;;;;;85.55;53.85;;;21.70;83.00;;;;;;4978375;28;90238;-77
2023/07/27 10:08:07;;;;;;;84.80;53.50;;;21.80;83.50;;;;;;4975178;28;89607;-79
2023/07/27 10:10:33;;;;;;;84.60;53.55;;;21.70;82.70;;;;;;4981419;28;91518;-80
2023/07/27 10:13:10;;;;;;;85.47;53.83;;;21.70;83.30;;;;;;4977373;28;90816;-79
2023/07/27 10:15:42;;;;;;;85.82;53.65;;;21.80;83.00;;;;;;4973933;28;90543;-80
2023/07/27 10:18:11;;;;;;;85.00;53.55;;;21.80;83.10;;;;;;4980406;28;90975;-80
2023/07/27 10:20:36;;;;;;;85.13;53.80;;;21.80;83.10;;;;;;4978530;28;94314;-79
2023/07/27 10:23:20;;;;;;;86.05;53.53;;;21.80;83.70;;;;;;4975878;28;90843;-80
2023/07/27 10:26:00;;;;;;;84.43;53.42;;;21.80;83.20;;;;;;4976744;28;94892;-79
2023/07/27 10:28:49;;;;;;;84.88;53.63;;;21.70;83.30;;;;;;4978741;28;90206;-79
2023/07/27 10:31:24;;;;;;;84.30;53.35;;;21.70;83.00;;;;;;4975484;28;91561;-78
2023/07/27 10:34:13;;;;;;;84.80;53.40;;;21.70;83.80;;;;;;4975864;28;89581;-78
2023/07/27 10:36:57;;;;;;;84.80;53.20;;;21.60;84.20;;;;;;4974379;28;93006;-78
2023/07/27 10:39:34;;;;;;;84.32;53.25;;;21.70;83.00;;;;;;4974629;28;93246;-78
2023/07/27 10:42:00;;;;;;;86.72;53.40;;;21.70;83.30;;;;;;4976454;28;89777;-78
2023/07/27 10:44:47;;;;;;;85.88;53.20;;;21.70;83.40;;;;;;4975736;28;92350;-79
2023/07/27 10:47:26;;;;;;;85.68;53.33;;;21.80;83.10;;;;;;4975272;28;92589;-79
2023/07/27 10:50:03;;;;;;;84.72;53.40;;;21.80;81.90;;;;;;4977409;28;90187;-79
2023/07/27 10:52:30;;;;;;;84.35;53.45;;;21.80;82.50;;;;;;4978025;28;89645;-79
2023/07/27 10:54:58;;;;;;;85.50;53.42;;;21.80;82.90;;;;;;4972849;28;90127;-78
2023/07/27 10:57:29;;;;;;;84.80;53.60;;;21.80;83.30;;;;;;4971753;28;91711;-78
2023/07/27 10:59:54;;;;;;;84.78;53.40;;;21.80;83.10;;;;;;4973062;28;89218;-79
2023/07/27 11:02:32;;;;;;;87.60;53.50;;;21.80;83.20;;;;;;4977789;28;89314;-78
2023/07/27 11:05:04;;;;;;;84.57;53.38;;;21.80;82.60;;;;;;4980299;28;90790;-78
2023/07/27 11:07:38;;;;;;;85.32;53.53;;;21.80;83.00;;;;;;4979420;28;93823;-82
2023/07/27 11:10:08;;;;;;;86.45;53.45;;;21.80;83.20;;;;;;4973750;28;92110;-79
2023/07/27 11:12:47;;;;;;;84.10;53.40;;;21.80;82.30;;;;;;4978470;28;89719;-79
2023/07/27 11:15:22;;;;;;;85.10;53.38;;;21.80;83.70;;;;;;4976815;28;92452;-78
2023/07/27 11:17:49;;;;;;;84.88;53.22;;;21.70;83.70;;;;;;4978226;28;90939;-79
2023/07/27 11:20:18;;;;;;;85.82;53.20;;;21.80;83.30;;;;;;4977884;28;90018;-78
2023/07/27 11:22:44;;;;;;;84.80;53.38;;;21.80;83.00;;;;;;4971177;28;90099;-77
2023/07/27 11:25:10;;;;;;;84.28;53.47;;;21.80;84.10;;;;;;4974224;28;89592;-78
2023/07/27 11:27:39;;;;;;;84.75;53.45;;;21.80;83.40;;;;;;4978725;28;89522;-78
2023/07/27 11:30:12;;;;;;;84.70;53.60;;;21.80;83.50;;;;;;4976113;28;90776;-78
2023/07/27 11:32:38;;;;;;;85.80;53.40;;;21.80;84.50;;;;;;4978723;28;88895;-82
2023/07/27 11:35:04;;;;;;;84.75;53.58;;;21.80;83.60;;;;;;4973635;28;91811;-81
2023/07/27 11:37:31;;;;;;;84.38;53.47;;;21.90;83.60;;;;;;4977496;28;90614;-78
2023/07/27 11:39:57;;;;;;;86.28;53.60;;;21.90;84.10;;;;;;4985094;28;89370;-79
2023/07/27 11:42:34;;;;;;;85.18;53.45;;;21.80;83.10;;;;;;4984760;28;90231;-80
2023/07/27 11:44:59;;;;;;;84.47;53.30;;;21.90;82.70;;;;;;4981404;28;90390;-79
2023/07/27 11:47:25;;;;;;;84.97;53.55;;;21.90;82.80;;;;;;4976257;28;89359;-78
2023/07/27 11:49:52;;;;;;;84.70;53.63;;;21.90;82.50;;;;;;4980801;28;90089;-79
2023/07/27 11:52:19;;;;;;;85.28;53.70;;;21.80;83.50;;;;;;4975078;28;89254;-80
2023/07/27 11:54:50;;;;;;;84.50;53.35;;;21.80;84.30;;;;;;4977699;28;90627;-79
2023/07/27 11:57:15;;;;;;;84.68;53.63;;;21.80;83.70;;;;;;4976808;28;90215;-79
2023/07/27 11:59:41;;;;;;;85.63;53.55;;;21.80;83.70;;;;;;4982255;28;90721;-78
2023/07/27 12:02:07;;;;;;;86.30;53.70;;;21.80;83.40;;;;;;4977946;28;90171;-78
2023/07/27 12:04:32;;;;;;;85.40;53.65;;;21.80;82.70;;;;;;4977060;28;90181;-78
2023/07/27 12:06:58;;;;;;;85.30;53.58;;;21.90;82.60;;;;;;4979518;28;90375;-77
2023/07/27 12:09:25;;;;;;;85.18;53.75;;;21.90;82.50;;;;;;4976954;28;89985;-78
2023/07/27 12:11:51;;;;;;;85.05;53.83;;;22.00;83.90;;;;;;4970879;28;93165;-79
2023/07/27 12:14:20;;;;;;;87.45;54.05;;;22.00;84.00;;;;;;4976421;28;90113;-79
2023/07/27 12:16:47;;;;;;;86.40;54.03;;;22.10;83.00;;;;;;4976258;28;90496;-79
2023/07/27 12:19:13;;;;;;;86.43;54.25;;;22.10;82.80;;;;;;4974092;28;90112;-78
2023/07/27 12:21:39;;;;;;;86.85;54.15;;;22.20;82.70;;;;;;4974258;28;90097;-77
2023/07/27 12:24:15;;;;;;;86.80;54.03;;;22.20;82.10;;;;;;4972852;28;91199;-82
2023/07/27 12:26:40;;;;;;;85.47;54.10;;;22.30;82.00;;;;;;4978729;28;90550;-82
2023/07/27 12:29:06;;;;;;;87.10;54.13;;;22.20;82.90;;;;;;4977435;28;92964;-78